Time;durP1;ratioP1;P1;durP2;ratioP2;P2;SDS_P1;SDS_P2;PMS_P1;PMS_P2;Temp;Humidity;BMP_temperature;BMP_pressure;BME280_temperature;BME280_humidity;BME280_pressure;Samples;Min_cycle;Max_cycle;Signal;HPM_P1;HPM_P2
2021/01/14 00:00:37;;;;;;;2.45;2.25;;;4.20;83.00;;;;;;5016288;28;20029;-65
2021/01/14 00:03:07;;;;;;;2.30;2.20;;;4.20;83.20;;;;;;5022313;28;20037;-66
2021/01/14 00:05:33;;;;;;;2.45;2.25;;;4.20;83.10;;;;;;5019905;28;20030;-66
2021/01/14 00:07:59;;;;;;;2.47;2.28;;;4.20;83.00;;;;;;5019123;28;20042;-66
2021/01/14 00:10:25;;;;;;;2.25;2.05;;;4.20;83.10;;;;;;5016714;28;20037;-66
2021/01/14 00:12:50;;;;;;;2.20;2.10;;;4.20;83.00;;;;;;4998910;28;20030;-66
2021/01/14 00:15:17;;;;;;;2.80;2.40;;;4.20;83.20;;;;;;4999218;28;20502;-65
2021/01/14 00:17:44;;;;;;;2.42;2.30;;;4.20;83.10;;;;;;4996406;28;20037;-67
2021/01/14 00:20:12;;;;;;;2.22;2.10;;;4.20;83.20;;;;;;5012222;28;20033;-65
2021/01/14 00:22:37;;;;;;;2.35;2.10;;;4.20;83.20;;;;;;5030201;28;20100;-66
2021/01/14 00:25:05;;;;;;;2.38;2.17;;;4.20;83.20;;;;;;4998029;28;20026;-66
2021/01/14 00:27:31;;;;;;;2.00;1.90;;;4.20;83.30;;;;;;4999564;28;20045;-66
2021/01/14 00:29:57;;;;;;;2.20;2.00;;;4.30;83.30;;;;;;5000411;28;20038;-67
2021/01/14 00:32:22;;;;;;;2.47;2.28;;;4.20;83.30;;;;;;4997538;28;20117;-67
2021/01/14 00:34:48;;;;;;;2.40;2.20;;;4.20;83.30;;;;;;5000105;28;20071;-65
2021/01/14 00:40:16;;;;;;;2.95;2.20;;;4.10;83.40;;;;;;5026754;28;20041;-64
2021/01/14 00:42:42;;;;;;;2.83;2.63;;;4.10;83.30;;;;;;5002928;28;20584;-66
2021/01/14 00:45:08;;;;;;;2.40;2.20;;;4.10;83.30;;;;;;5004205;28;20123;-67
2021/01/14 00:47:37;;;;;;;2.55;2.35;;;4.10;83.20;;;;;;5018287;28;20088;-66
2021/01/14 00:50:04;;;;;;;2.60;2.40;;;4.00;83.30;;;;;;5016425;28;20107;-66
2021/01/14 00:52:30;;;;;;;2.53;2.33;;;4.00;83.30;;;;;;5018788;28;20412;-66
2021/01/14 00:54:56;;;;;;;2.90;2.70;;;3.90;83.30;;;;;;5019370;28;20033;-66
2021/01/14 00:57:21;;;;;;;2.78;2.53;;;3.90;83.40;;;;;;5016665;28;20030;-68
2021/01/14 00:59:47;;;;;;;2.63;2.42;;;3.90;83.50;;;;;;5013436;28;20028;-66
2021/01/14 01:02:13;;;;;;;2.88;2.67;;;3.90;83.50;;;;;;5017448;28;20038;-67
2021/01/14 01:04:42;;;;;;;3.25;2.55;;;3.90;83.50;;;;;;5016941;28;20034;-66
2021/01/14 01:07:08;;;;;;;2.72;2.53;;;3.90;83.50;;;;;;5019169;28;20072;-67
2021/01/14 01:09:33;;;;;;;2.65;2.45;;;3.80;83.50;;;;;;5017565;28;20046;-66
2021/01/14 01:11:59;;;;;;;2.70;2.50;;;3.80;83.50;;;;;;5002825;28;20033;-66
2021/01/14 01:14:25;;;;;;;3.15;2.85;;;3.80;83.50;;;;;;4997814;28;20119;-68
2021/01/14 01:16:55;;;;;;;3.03;2.83;;;3.70;83.50;;;;;;5012013;28;20093;-65
2021/01/14 01:19:21;;;;;;;3.35;3.03;;;3.70;83.50;;;;;;4999014;28;20046;-66
2021/01/14 01:21:47;;;;;;;2.85;2.65;;;3.70;83.50;;;;;;5029816;28;20045;-65
2021/01/14 01:24:13;;;;;;;3.38;3.08;;;3.60;83.40;;;;;;4997377;28;20129;-67
2021/01/14 01:26:38;;;;;;;2.78;2.58;;;3.60;83.50;;;;;;4997987;28;20034;-66
2021/01/14 01:29:04;;;;;;;3.10;2.88;;;3.60;83.60;;;;;;4998197;28;20054;-65
2021/01/14 01:31:30;;;;;;;3.40;3.10;;;3.50;83.60;;;;;;4998235;28;20042;-66
2021/01/14 01:33:55;;;;;;;2.95;2.75;;;3.50;83.60;;;;;;4998012;28;20560;-68
2021/01/14 01:36:21;;;;;;;2.55;2.35;;;3.50;83.70;;;;;;4996099;28;20039;-67
2021/01/14 01:38:47;;;;;;;2.50;2.30;;;3.50;83.70;;;;;;4997346;28;20060;-67
2021/01/14 01:41:12;;;;;;;1.98;1.88;;;3.40;83.70;;;;;;4994122;28;20026;-66
2021/01/14 01:43:38;;;;;;;2.78;1.55;;;3.40;83.80;;;;;;5000028;28;20100;-66
2021/01/14 01:46:05;;;;;;;1.67;1.58;;;3.40;83.90;;;;;;4997365;28;20034;-66
2021/01/14 01:48:31;;;;;;;1.25;1.15;;;3.30;83.90;;;;;;4998392;28;20035;-66
2021/01/14 01:51:01;;;;;;;0.98;0.98;;;3.30;84.00;;;;;;4997101;28;20576;-67
2021/01/14 01:53:27;;;;;;;0.40;0.40;;;3.30;84.10;;;;;;4998721;28;20415;-65
2021/01/14 01:55:53;;;;;;;0.40;0.40;;;3.30;84.40;;;;;;4997121;28;20073;-66
2021/01/14 01:58:21;;;;;;;0.47;0.47;;;3.20;84.40;;;;;;5011333;28;20502;-66
2021/01/14 02:00:47;;;;;;;0.40;0.40;;;3.20;84.40;;;;;;5015174;28;20080;-67
2021/01/14 02:03:13;;;;;;;0.30;0.30;;;3.20;84.40;;;;;;5015373;28;20054;-66
2021/01/14 02:05:38;;;;;;;0.40;0.40;;;3.20;84.60;;;;;;5016858;28;20091;-66
2021/01/14 02:08:17;;;;;;;0.30;0.30;;;3.20;84.50;;;;;;5016114;28;20022;-65
2021/01/14 02:11:02;;;;;;;1.48;0.20;;;3.20;84.60;;;;;;5015501;28;20045;-65
2021/01/14 02:13:28;;;;;;;0.20;0.20;;;3.20;85.00;;;;;;5014339;28;20112;-67
2021/01/14 02:15:58;;;;;;;2.72;0.20;;;3.20;84.70;;;;;;5017455;28;20030;-67
2021/01/14 02:18:24;;;;;;;0.13;0.10;;;3.10;84.60;;;;;;5015086;28;20057;-65
2021/01/14 02:20:54;;;;;;;0.55;0.25;;;3.10;84.50;;;;;;5015651;28;20029;-66
2021/01/14 02:23:57;;;;;;;0.20;0.13;;;3.10;84.70;;;;;;5017752;28;20030;-66
2021/01/14 02:26:27;;;;;;;1.58;0.10;;;3.10;84.90;;;;;;5014477;28;20025;-67
2021/01/14 02:28:54;;;;;;;0.15;0.10;;;3.10;84.60;;;;;;5016533;28;20034;-66
2021/01/14 02:31:21;;;;;;;0.43;0.35;;;3.00;84.40;;;;;;5015036;28;20497;-65
2021/01/14 02:33:51;;;;;;;7.85;0.35;;;3.00;83.90;;;;;;5016582;28;20046;-66
2021/01/14 02:36:18;;;;;;;0.32;0.20;;;3.10;84.10;;;;;;5017018;28;20033;-66
2021/01/14 02:38:43;;;;;;;0.30;0.10;;;3.00;84.00;;;;;;5015368;28;20048;-63
2021/01/14 02:41:09;;;;;;;0.30;0.20;;;3.00;83.90;;;;;;5015682;28;20053;-64
2021/01/14 02:43:35;;;;;;;0.57;0.20;;;3.00;83.70;;;;;;5050222;28;20035;-66
2021/01/14 02:46:02;;;;;;;0.30;0.10;;;3.00;83.60;;;;;;5015671;28;20034;-65
2021/01/14 02:48:43;;;;;;;0.30;0.20;;;3.00;83.70;;;;;;5016518;28;20033;-65
2021/01/14 02:51:15;;;;;;;0.30;0.20;;;3.00;84.60;;;;;;5015761;28;20048;-65
2021/01/14 02:53:42;;;;;;;0.80;0.30;;;3.00;83.70;;;;;;5017236;28;20046;-65
2021/01/14 02:56:10;;;;;;;0.30;0.15;;;3.00;83.70;;;;;;5016030;28;20038;-66
2021/01/14 02:58:35;;;;;;;0.52;0.20;;;2.90;83.50;;;;;;5015892;28;20049;-67
2021/01/14 03:01:01;;;;;;;0.57;0.28;;;2.90;83.50;;;;;;5014182;28;20042;-65
2021/01/14 03:03:27;;;;;;;0.28;0.17;;;2.90;83.20;;;;;;5017518;28;20057;-65
2021/01/14 03:05:53;;;;;;;1.25;0.25;;;2.90;82.80;;;;;;5017102;28;20041;-65
2021/01/14 03:08:18;;;;;;;0.10;0.10;;;2.90;82.90;;;;;;5015468;28;20033;-65
2021/01/14 03:10:45;;;;;;;0.50;0.10;;;2.90;83.10;;;;;;5015063;28;20037;-65
2021/01/14 03:13:11;;;;;;;0.28;0.10;;;2.90;83.20;;;;;;5016309;28;20030;-64
2021/01/14 03:15:37;;;;;;;0.43;0.10;;;3.00;83.30;;;;;;5018330;28;20037;-65
2021/01/14 03:18:03;;;;;;;0.73;0.30;;;3.00;83.20;;;;;;5020517;28;20029;-64
2021/01/14 03:20:28;;;;;;;1.33;0.10;;;3.00;83.20;;;;;;5019064;28;20026;-64
2021/01/14 03:22:54;;;;;;;1.10;0.10;;;3.00;83.00;;;;;;5021805;28;20519;-65
2021/01/14 03:25:19;;;;;;;0.22;0.10;;;3.00;82.80;;;;;;5021203;28;20611;-64
2021/01/14 03:27:46;;;;;;;0.30;0.10;;;3.00;82.60;;;;;;5020850;28;20049;-65
2021/01/14 03:30:14;;;;;;;0.40;0.15;;;3.00;82.70;;;;;;5019141;28;20029;-65
2021/01/14 03:32:40;;;;;;;0.10;0.10;;;3.00;83.60;;;;;;5018651;28;20034;-67
2021/01/14 03:35:08;;;;;;;0.40;0.20;;;3.00;83.60;;;;;;5021214;28;20125;-65
2021/01/14 03:37:37;;;;;;;0.63;0.20;;;3.00;82.80;;;;;;5021790;28;20041;-66
2021/01/14 03:40:05;;;;;;;0.98;0.40;;;3.00;82.80;;;;;;5005617;28;20035;-65
2021/01/14 03:42:30;;;;;;;0.30;0.20;;;3.00;82.70;;;;;;5017245;28;20050;-65
2021/01/14 03:44:56;;;;;;;0.20;0.20;;;3.00;82.60;;;;;;5020828;28;20033;-65
2021/01/14 03:47:24;;;;;;;0.30;0.28;;;3.00;82.60;;;;;;5020749;28;20034;-66
2021/01/14 03:49:50;;;;;;;1.10;0.20;;;3.00;82.60;;;;;;5019276;28;20401;-64
2021/01/14 03:52:16;;;;;;;0.82;0.20;;;3.00;82.50;;;;;;5018644;28;20125;-65
2021/01/14 03:54:45;;;;;;;1.65;0.10;;;3.00;82.50;;;;;;5032945;28;20037;-64
2021/01/14 03:57:11;;;;;;;1.77;0.13;;;3.00;82.50;;;;;;5016748;28;20033;-64
2021/01/14 03:59:36;;;;;;;0.22;0.10;;;3.00;82.60;;;;;;5020875;28;20604;-64
2021/01/14 04:02:06;;;;;;;1.33;0.20;;;3.00;82.60;;;;;;5018748;28;20044;-65
2021/01/14 04:04:39;;;;;;;0.30;0.10;;;3.00;82.70;;;;;;5020345;28;20112;-64
2021/01/14 04:07:09;;;;;;;1.55;0.10;;;3.00;82.80;;;;;;5016918;28;20042;-64
2021/01/14 04:09:36;;;;;;;0.35;0.17;;;3.00;82.80;;;;;;5019864;28;20444;-65
2021/01/14 04:12:02;;;;;;;1.08;0.20;;;3.00;82.80;;;;;;5006532;28;20042;-65
2021/01/14 04:14:28;;;;;;;0.73;0.40;;;3.10;83.00;;;;;;4998468;28;20046;-64
2021/01/14 04:16:53;;;;;;;0.88;0.22;;;3.10;83.00;;;;;;5000128;28;20034;-63
2021/01/14 04:19:20;;;;;;;0.22;0.10;;;3.10;83.00;;;;;;5006921;28;20026;-64
2021/01/14 04:21:46;;;;;;;0.30;0.13;;;3.10;83.10;;;;;;5008142;28;20038;-64
2021/01/14 04:24:12;;;;;;;1.23;0.20;;;3.10;83.00;;;;;;5000591;28;20517;-65
2021/01/14 04:26:38;;;;;;;0.40;0.20;;;3.10;83.10;;;;;;4997095;28;20030;-64
2021/01/14 04:29:05;;;;;;;0.60;0.20;;;3.10;83.10;;;;;;4999970;28;20034;-64
2021/01/14 04:31:31;;;;;;;0.75;0.22;;;3.00;83.00;;;;;;4995701;28;20096;-65
2021/01/14 04:33:57;;;;;;;1.25;0.30;;;3.00;83.10;;;;;;4999775;28;20046;-64
2021/01/14 04:36:23;;;;;;;2.00;0.30;;;3.00;83.20;;;;;;5015033;28;20036;-64
2021/01/14 04:38:48;;;;;;;1.02;0.30;;;3.00;83.30;;;;;;5017056;28;20037;-64
2021/01/14 04:41:17;;;;;;;0.30;0.30;;;3.10;83.40;;;;;;5017025;28;20038;-65
2021/01/14 04:43:43;;;;;;;0.32;0.15;;;3.10;83.50;;;;;;5019448;28;20033;-64
2021/01/14 04:46:11;;;;;;;0.75;0.20;;;3.00;83.50;;;;;;5017149;28;20041;-63
2021/01/14 04:48:36;;;;;;;1.27;0.20;;;3.00;83.50;;;;;;5016308;28;20116;-64
2021/01/14 04:51:12;;;;;;;1.02;0.20;;;3.00;83.50;;;;;;5015746;28;20187;-64
2021/01/14 04:53:41;;;;;;;0.13;0.13;;;3.10;83.80;;;;;;5014438;28;21159;-65
2021/01/14 04:56:09;;;;;;;1.75;0.30;;;3.10;83.70;;;;;;5016470;28;20033;-64
2021/01/14 04:58:36;;;;;;;0.45;0.35;;;3.10;83.70;;;;;;5018209;28;20513;-65
2021/01/14 05:01:25;;;;;;;0.65;0.20;;;3.10;83.70;;;;;;5014788;28;20049;-65
2021/01/14 05:03:54;;;;;;;1.05;0.30;;;3.10;84.20;;;;;;5018894;28;20107;-64
2021/01/14 05:06:26;;;;;;;0.90;0.50;;;3.10;83.80;;;;;;5014675;28;20033;-65
2021/01/14 05:09:01;;;;;;;4.97;2.58;;;3.10;84.70;;;;;;5018998;28;20096;-64
2021/01/14 05:11:33;;;;;;;4.40;3.03;;;3.10;83.90;;;;;;5018879;28;20077;-65
2021/01/14 05:14:03;;;;;;;4.35;2.55;;;3.10;83.90;;;;;;5019148;28;20906;-65
2021/01/14 05:16:28;;;;;;;3.55;2.15;;;3.10;84.70;;;;;;5017545;28;20074;-65
2021/01/14 05:18:54;;;;;;;2.10;1.60;;;3.10;84.00;;;;;;5015763;28;20167;-63
2021/01/14 05:21:21;;;;;;;5.00;1.65;;;3.10;84.00;;;;;;5019129;28;20124;-64
2021/01/14 05:23:47;;;;;;;3.00;1.50;;;3.10;84.00;;;;;;5019053;28;20034;-65
2021/01/14 05:26:30;;;;;;;1.17;0.90;;;3.10;84.00;;;;;;5017110;28;20396;-64
2021/01/14 05:28:55;;;;;;;1.80;0.60;;;3.10;85.10;;;;;;5011498;28;20033;-65
2021/01/14 05:31:21;;;;;;;1.63;0.50;;;3.10;84.00;;;;;;5008752;28;20038;-65
2021/01/14 05:33:59;;;;;;;0.60;0.55;;;3.10;84.10;;;;;;5016614;28;20034;-66
2021/01/14 05:36:24;;;;;;;1.02;0.70;;;3.10;85.20;;;;;;5012888;28;20033;-66
2021/01/14 05:38:51;;;;;;;1.40;1.20;;;3.10;84.20;;;;;;5044880;28;20084;-65
2021/01/14 05:41:18;;;;;;;1.20;1.10;;;3.10;84.20;;;;;;5015238;28;20049;-66
2021/01/14 05:43:46;;;;;;;1.63;0.90;;;3.10;84.20;;;;;;5016584;28;20087;-65
2021/01/14 05:46:14;;;;;;;0.98;0.90;;;3.10;84.20;;;;;;5017024;28;20136;-64
2021/01/14 05:48:40;;;;;;;0.65;0.65;;;3.10;84.20;;;;;;5017413;28;20038;-65
2021/01/14 05:51:16;;;;;;;0.75;0.75;;;3.10;84.20;;;;;;5033473;28;20092;-66
2021/01/14 05:54:08;;;;;;;1.80;1.00;;;3.10;84.20;;;;;;5019150;28;20164;-66
2021/01/14 05:56:48;;;;;;;1.17;1.02;;;3.10;84.40;;;;;;5018190;28;20038;-64
2021/01/14 05:59:18;;;;;;;1.35;0.90;;;3.10;84.30;;;;;;5018670;28;20057;-67
2021/01/14 06:01:57;;;;;;;1.50;1.10;;;3.10;84.10;;;;;;5018789;28;20033;-66
2021/01/14 06:04:32;;;;;;;1.80;1.20;;;3.20;84.30;;;;;;5018133;28;20040;-65
2021/01/14 06:07:06;;;;;;;;;;;3.20;84.30;;;;;;5017254;28;20041;-66
2021/01/14 06:09:44;;;;;;;1.17;1.07;;;3.20;84.70;;;;;;5018810;28;19909;-66
2021/01/14 06:12:14;;;;;;;2.10;1.20;;;3.20;83.90;;;;;;5016319;28;20280;-67
2021/01/14 06:14:40;;;;;;;1.38;1.27;;;3.30;83.90;;;;;;5049854;28;20040;-65
2021/01/14 06:17:12;;;;;;;2.45;1.33;;;3.30;83.90;;;;;;5018442;28;20030;-66
2021/01/14 06:19:38;;;;;;;3.78;2.13;;;3.30;84.00;;;;;;5018251;28;20571;-66
2021/01/14 06:22:05;;;;;;;5.18;2.72;;;3.30;83.90;;;;;;5019157;28;20030;-66
2021/01/14 06:24:38;;;;;;;5.95;3.10;;;3.30;83.90;;;;;;5017129;28;20026;-66
2021/01/14 06:27:06;;;;;;;6.15;3.08;;;3.30;84.90;;;;;;5017609;28;20048;-66
2021/01/14 06:29:39;;;;;;;7.10;2.88;;;3.30;84.00;;;;;;5016974;28;20059;-67
2021/01/14 06:32:19;;;;;;;2.60;2.38;;;3.20;84.00;;;;;;5017138;28;20065;-64
2021/01/14 06:34:51;;;;;;;3.03;2.03;;;3.20;84.00;;;;;;5016795;28;20029;-65
2021/01/14 06:37:25;;;;;;;3.17;2.10;;;3.20;84.00;;;;;;5017010;28;20085;-65
2021/01/14 06:39:59;;;;;;;2.53;1.90;;;3.20;84.00;;;;;;5015755;28;20041;-64
2021/01/14 06:42:29;;;;;;;3.47;1.83;;;3.20;84.00;;;;;;5015900;28;20100;-65
2021/01/14 06:45:00;;;;;;;2.00;1.90;;;3.20;84.00;;;;;;5017892;28;20030;-64
2021/01/14 06:47:33;;;;;;;2.15;1.95;;;3.20;84.00;;;;;;5048293;28;20026;-65
2021/01/14 06:50:20;;;;;;;3.03;2.72;;;3.20;84.10;;;;;;5015602;28;20026;-65
2021/01/14 06:53:10;;;;;;;2.35;2.15;;;3.20;84.30;;;;;;5016530;28;20504;-64
2021/01/14 06:55:36;;;;;;;2.80;2.28;;;3.20;84.30;;;;;;5013063;28;20095;-65
2021/01/14 06:58:07;;;;;;;3.38;2.67;;;3.20;84.00;;;;;;5013118;28;20036;-67
2021/01/14 07:00:39;;;;;;;16.10;10.23;;;3.10;83.90;;;;;;5014763;28;20030;-65
2021/01/14 07:03:16;;;;;;;3.90;3.08;;;3.10;84.00;;;;;;5016738;28;20117;-65
2021/01/14 07:05:54;;;;;;;4.22;3.10;;;3.10;84.20;;;;;;5013713;28;20405;-64
2021/01/14 07:08:29;;;;;;;2.22;1.50;;;3.10;83.90;;;;;;5016467;28;20564;-66
2021/01/14 07:11:01;;;;;;;;;;;3.10;82.70;;;;;;5016523;28;20034;-64
2021/01/14 07:13:32;;;;;;;1.60;1.20;;;3.10;81.60;;;;;;5016615;28;19948;-64
2021/01/14 07:15:59;;;;;;;2.13;1.40;;;3.00;81.10;;;;;;5015214;28;20489;-64
2021/01/14 07:18:33;;;;;;;2.42;1.60;;;2.90;80.90;;;;;;5046731;28;20058;-64
2021/01/14 07:21:22;;;;;;;2.00;1.80;;;2.80;80.60;;;;;;5016928;28;20037;-63
2021/01/14 07:24:03;;;;;;;1.45;1.35;;;2.80;81.10;;;;;;5017407;28;20045;-66
2021/01/14 07:26:29;;;;;;;1.60;1.50;;;2.60;81.10;;;;;;5017543;28;20036;-65
2021/01/14 07:28:55;;;;;;;1.40;1.30;;;2.60;81.20;;;;;;5015368;28;20042;-64
2021/01/14 07:31:26;;;;;;;2.05;1.65;;;2.50;81.40;;;;;;5017485;28;20042;-65
2021/01/14 07:33:54;;;;;;;1.48;1.20;;;2.40;81.70;;;;;;5015970;28;20065;-65
2021/01/14 07:36:25;;;;;;;1.83;1.60;;;2.30;81.90;;;;;;5016507;28;20041;-67
2021/01/14 07:38:53;;;;;;;1.60;1.48;;;2.30;82.30;;;;;;5048644;28;20037;-65
2021/01/14 07:41:19;;;;;;;2.53;1.63;;;2.30;82.60;;;;;;5017792;28;20183;-65
2021/01/14 07:43:45;;;;;;;2.60;1.73;;;2.20;82.70;;;;;;5017612;28;20045;-65
2021/01/14 07:46:25;;;;;;;2.42;1.60;;;2.20;82.80;;;;;;5048261;28;20030;-64
2021/01/14 07:48:52;;;;;;;1.77;1.67;;;2.20;83.20;;;;;;5014577;28;20116;-65
2021/01/14 07:51:18;;;;;;;2.80;2.20;;;2.20;83.00;;;;;;5017863;28;20397;-65
2021/01/14 07:54:07;;;;;;;2.67;2.00;;;2.20;83.90;;;;;;5017072;28;20269;-64
2021/01/14 07:56:48;;;;;;;1.85;1.65;;;2.20;83.20;;;;;;5016190;28;20083;-64
2021/01/14 07:59:25;;;;;;;2.75;1.90;;;2.20;83.10;;;;;;5016220;28;20052;-65
2021/01/14 08:02:07;;;;;;;2.10;1.90;;;2.20;83.00;;;;;;5011570;28;20057;-65
2021/01/14 08:04:48;;;;;;;1.70;1.60;;;2.30;83.30;;;;;;5019572;28;20134;-65
2021/01/14 08:07:24;;;;;;;2.63;2.17;;;2.30;83.30;;;;;;5016757;28;20061;-65
2021/01/14 08:09:52;;;;;;;3.50;2.05;;;2.40;83.30;;;;;;5014937;28;20496;-65
2021/01/14 08:12:20;;;;;;;5.15;2.35;;;2.40;83.00;;;;;;5016068;28;20059;-64
2021/01/14 08:14:45;;;;;;;1.40;1.20;;;2.50;82.60;;;;;;5020341;28;20135;-65
2021/01/14 08:17:27;;;;;;;1.30;1.20;;;2.40;81.90;;;;;;5019750;28;20496;-65
2021/01/14 08:19:54;;;;;;;0.95;0.80;;;2.40;80.40;;;;;;5019268;28;20516;-66
2021/01/14 08:22:20;;;;;;;1.35;1.25;;;2.40;80.70;;;;;;5019706;28;20052;-64
2021/01/14 08:24:53;;;;;;;1.90;0.60;;;2.40;80.40;;;;;;5018382;28;20440;-66
2021/01/14 08:27:26;;;;;;;0.73;0.63;;;2.40;78.00;;;;;;5018552;28;20044;-67
2021/01/14 08:29:58;;;;;;;1.13;0.82;;;2.30;78.90;;;;;;5017647;28;20085;-65
2021/01/14 08:32:43;;;;;;;1.75;1.05;;;2.30;78.80;;;;;;5018756;28;20083;-65
2021/01/14 08:35:17;;;;;;;;;;;2.30;78.40;;;;;;5019994;28;20053;-66
2021/01/14 08:37:57;;;;;;;2.80;2.05;;;2.30;79.00;;;;;;5019841;28;20314;-65
2021/01/14 08:40:23;;;;;;;2.38;1.15;;;2.30;78.90;;;;;;5017281;28;20026;-64
2021/01/14 08:42:59;;;;;;;2.05;1.23;;;2.30;79.10;;;;;;5020217;28;20382;-65
2021/01/14 08:45:28;;;;;;;1.50;1.10;;;2.20;78.10;;;;;;5019925;28;20042;-64
2021/01/14 08:48:29;;;;;;;0.95;0.70;;;2.20;78.10;;;;;;5017855;28;20029;-65
2021/01/14 08:50:55;;;;;;;0.68;0.60;;;2.20;78.10;;;;;;5009574;28;20125;-65
2021/01/14 08:53:30;;;;;;;0.65;0.40;;;2.20;77.80;;;;;;5018323;28;20121;-65
2021/01/14 08:56:03;;;;;;;1.00;0.50;;;2.10;77.80;;;;;;5020096;28;20025;-65
2021/01/14 08:58:43;;;;;;;0.65;0.50;;;2.10;77.90;;;;;;5018467;28;20033;-65
2021/01/14 09:01:18;;;;;;;0.35;0.28;;;2.10;78.10;;;;;;5018076;28;20034;-65
2021/01/14 09:03:47;;;;;;;0.50;0.45;;;2.00;78.00;;;;;;5015866;28;20040;-65
2021/01/14 09:06:16;;;;;;;1.35;0.50;;;2.00;78.50;;;;;;5015032;28;20026;-65
2021/01/14 09:08:42;;;;;;;0.52;0.40;;;1.90;78.70;;;;;;5013651;28;20434;-65
2021/01/14 09:11:08;;;;;;;0.30;0.30;;;1.90;78.70;;;;;;5015739;28;20037;-63
2021/01/14 09:13:34;;;;;;;0.50;0.40;;;1.80;78.60;;;;;;5019000;28;20049;-65
2021/01/14 09:16:11;;;;;;;0.30;0.30;;;1.80;79.00;;;;;;5019776;28;20053;-64
2021/01/14 09:18:41;;;;;;;1.20;0.32;;;1.80;78.80;;;;;;5017633;28;21847;-66
2021/01/14 09:21:08;;;;;;;2.30;0.40;;;1.70;79.00;;;;;;5017432;28;20112;-64
2021/01/14 09:23:36;;;;;;;0.30;0.30;;;1.70;79.20;;;;;;5018904;28;20092;-63
2021/01/14 09:26:13;;;;;;;0.55;0.40;;;1.60;79.30;;;;;;5019337;28;20022;-66
2021/01/14 09:28:40;;;;;;;0.45;0.40;;;1.60;79.50;;;;;;5017080;28;20088;-66
2021/01/14 09:31:09;;;;;;;1.65;0.60;;;1.60;79.60;;;;;;5018270;28;20033;-65
2021/01/14 09:33:39;;;;;;;1.30;0.90;;;1.60;79.70;;;;;;5050416;28;20030;-66
2021/01/14 09:36:17;;;;;;;0.93;0.70;;;1.60;79.80;;;;;;5019271;28;20026;-65
2021/01/14 09:39:06;;;;;;;1.17;1.00;;;1.60;79.80;;;;;;5016913;28;20065;-65
2021/01/14 09:41:34;;;;;;;1.60;0.93;;;1.50;80.80;;;;;;5018977;28;20053;-66
2021/01/14 09:44:03;;;;;;;1.60;0.80;;;1.50;80.10;;;;;;5019376;28;20520;-68
2021/01/14 09:46:36;;;;;;;1.00;0.90;;;1.50;80.20;;;;;;5018169;28;20038;-67
2021/01/14 09:49:15;;;;;;;1.40;0.93;;;1.50;80.40;;;;;;5017845;28;20063;-66
2021/01/14 09:51:45;;;;;;;1.02;1.00;;;1.50;80.40;;;;;;5019393;28;20037;-65
2021/01/14 09:54:12;;;;;;;2.22;1.10;;;1.50;81.10;;;;;;5017807;28;20121;-66
2021/01/14 09:56:47;;;;;;;1.52;1.15;;;1.50;80.30;;;;;;5018557;28;20037;-66
2021/01/14 09:59:17;;;;;;;1.45;1.27;;;1.40;80.20;;;;;;5017810;28;20041;-65
2021/01/14 10:01:53;;;;;;;1.13;1.00;;;1.40;80.30;;;;;;5017594;28;20032;-65
2021/01/14 10:04:24;;;;;;;1.52;1.02;;;1.40;80.40;;;;;;5017600;28;20037;-64
2021/01/14 10:07:03;;;;;;;1.55;1.00;;;1.40;80.40;;;;;;5016848;28;20040;-66
2021/01/14 10:09:33;;;;;;;1.08;0.75;;;1.40;80.70;;;;;;5018053;28;20036;-65
2021/01/14 10:12:00;;;;;;;1.00;0.68;;;1.40;80.90;;;;;;5015795;28;20057;-65
2021/01/14 10:14:26;;;;;;;0.80;0.70;;;1.40;81.00;;;;;;5014276;28;20061;-64
2021/01/14 10:16:52;;;;;;;1.02;0.60;;;1.40;81.00;;;;;;5015499;28;20506;-64
2021/01/14 10:19:19;;;;;;;0.82;0.57;;;1.40;80.90;;;;;;5016455;28;20040;-64
2021/01/14 10:21:49;;;;;;;0.70;0.68;;;1.40;80.70;;;;;;5016405;28;20045;-65
2021/01/14 10:24:27;;;;;;;0.85;0.50;;;1.50;80.70;;;;;;5016488;28;20030;-65
2021/01/14 10:26:54;;;;;;;1.50;0.40;;;1.50;80.60;;;;;;5016207;28;20497;-65
2021/01/14 10:29:30;;;;;;;2.28;0.63;;;1.50;80.40;;;;;;5047890;28;20205;-65
2021/01/14 10:32:02;;;;;;;0.80;0.68;;;1.50;80.60;;;;;;5016588;28;20068;-64
2021/01/14 10:34:46;;;;;;;0.70;0.70;;;1.50;80.60;;;;;;5016343;28;20520;-65
2021/01/14 10:37:32;;;;;;;2.28;1.73;;;1.50;80.60;;;;;;5014438;28;20041;-65
2021/01/14 10:40:03;;;;;;;2.47;1.10;;;1.50;80.60;;;;;;5017773;28;20140;-64
2021/01/14 10:42:32;;;;;;;2.15;1.30;;;1.60;80.60;;;;;;5017726;28;20037;-65
2021/01/14 10:45:09;;;;;;;1.83;1.20;;;1.60;80.60;;;;;;5016144;28;20033;-65
2021/01/14 10:47:37;;;;;;;1.30;1.20;;;1.60;80.40;;;;;;5016246;28;20091;-65
2021/01/14 10:50:21;;;;;;;0.98;0.55;;;1.70;80.40;;;;;;5016293;28;20511;-66
2021/01/14 10:53:25;;;;;;;2.80;0.93;;;1.70;79.90;;;;;;5018356;28;20220;-65
2021/01/14 10:56:02;;;;;;;0.60;0.60;;;1.70;80.00;;;;;;5019896;28;20583;-65
2021/01/14 10:58:28;;;;;;;3.55;2.38;;;1.70;80.00;;;;;;5017925;28;20400;-64
2021/01/14 11:00:55;;;;;;;2.25;1.60;;;1.70;80.20;;;;;;5016612;28;20033;-64
2021/01/14 11:03:22;;;;;;;1.67;1.23;;;1.80;80.20;;;;;;5017834;28;20119;-64
2021/01/14 11:05:52;;;;;;;3.85;1.90;;;1.80;80.00;;;;;;5017122;28;20037;-64
2021/01/14 11:08:19;;;;;;;3.13;1.80;;;1.90;80.00;;;;;;5016732;28;20030;-65
2021/01/14 11:10:48;;;;;;;8.90;5.30;;;1.90;80.20;;;;;;5030854;28;20034;-64
2021/01/14 11:13:20;;;;;;;3.03;2.03;;;1.90;80.20;;;;;;5017270;28;20444;-65
2021/01/14 11:15:45;;;;;;;11.07;5.43;;;1.90;79.90;;;;;;5017240;28;20576;-65
2021/01/14 11:18:11;;;;;;;11.98;6.40;;;2.00;79.90;;;;;;5017795;28;20120;-64
2021/01/14 11:20:38;;;;;;;17.40;9.27;;;2.10;80.00;;;;;;5017630;28;20033;-64
2021/01/14 11:23:03;;;;;;;12.30;6.82;;;2.10;79.90;;;;;;5018471;28;20065;-65
2021/01/14 11:25:30;;;;;;;15.27;9.57;;;2.10;79.70;;;;;;5017456;28;20072;-64
2021/01/14 11:27:57;;;;;;;5.90;4.63;;;2.20;79.70;;;;;;5017724;28;20563;-64
2021/01/14 11:30:24;;;;;;;11.40;5.80;;;2.20;79.50;;;;;;5017153;28;20066;-64
2021/01/14 11:32:49;;;;;;;3.00;2.20;;;2.20;79.40;;;;;;5017311;28;20335;-65
2021/01/14 11:35:15;;;;;;;5.63;3.47;;;2.20;79.30;;;;;;5019853;28;20069;-65
2021/01/14 11:37:41;;;;;;;3.97;2.50;;;2.20;79.10;;;;;;5021646;28;20037;-65
2021/01/14 11:40:08;;;;;;;3.75;3.10;;;2.20;79.20;;;;;;5018452;28;20060;-65
2021/01/14 11:42:34;;;;;;;3.78;2.75;;;2.30;79.10;;;;;;5015713;28;20037;-64
2021/01/14 11:45:00;;;;;;;3.22;2.35;;;2.20;79.10;;;;;;5016384;28;20033;-64
2021/01/14 11:47:26;;;;;;;1.92;1.45;;;2.30;79.20;;;;;;5019660;28;20580;-64
2021/01/14 11:49:51;;;;;;;1.48;1.00;;;2.20;79.10;;;;;;5051384;28;20117;-65
2021/01/14 11:52:17;;;;;;;2.38;1.30;;;2.30;79.20;;;;;;5020714;28;20133;-65
2021/01/14 11:54:43;;;;;;;1.83;1.30;;;2.30;79.10;;;;;;5020834;28;20040;-66
2021/01/14 11:57:10;;;;;;;1.17;0.95;;;2.30;78.90;;;;;;5019141;28;20436;-65
2021/01/14 11:59:36;;;;;;;1.73;1.10;;;2.30;78.60;;;;;;5020527;28;20038;-64
2021/01/14 12:02:02;;;;;;;0.80;0.77;;;2.30;78.60;;;;;;5019770;28;20046;-65
2021/01/14 12:04:28;;;;;;;1.95;1.20;;;2.20;78.80;;;;;;5036155;28;20030;-66
2021/01/14 12:06:53;;;;;;;2.65;1.98;;;2.30;79.00;;;;;;5020109;28;20401;-64
2021/01/14 12:09:20;;;;;;;2.65;1.33;;;2.30;78.80;;;;;;5019908;28;20497;-65
2021/01/14 12:11:46;;;;;;;4.82;3.47;;;2.30;78.60;;;;;;5051587;28;20040;-65
2021/01/14 12:14:11;;;;;;;3.80;2.10;;;2.20;78.50;;;;;;5019891;28;20037;-65
2021/01/14 12:16:37;;;;;;;3.75;2.22;;;2.30;78.70;;;;;;5019733;28;20038;-65
2021/01/14 12:19:03;;;;;;;2.78;2.10;;;2.20;78.60;;;;;;5019773;28;20060;-65
2021/01/14 12:21:28;;;;;;;2.72;2.15;;;2.20;78.70;;;;;;5018269;28;20535;-65
2021/01/14 12:23:54;;;;;;;1.75;1.60;;;2.30;78.70;;;;;;5020861;28;20030;-64
2021/01/14 12:26:20;;;;;;;3.28;2.25;;;2.30;78.60;;;;;;5019225;28;20153;-65
2021/01/14 12:28:46;;;;;;;5.47;2.42;;;2.30;78.60;;;;;;5019653;28;20032;-64
2021/01/14 12:31:12;;;;;;;2.40;2.08;;;2.30;78.60;;;;;;5018006;28;20413;-66
2021/01/14 12:33:37;;;;;;;2.45;1.98;;;2.30;78.80;;;;;;5013641;28;20029;-67
2021/01/14 12:36:03;;;;;;;3.03;2.10;;;2.30;78.80;;;;;;5015741;28;20322;-64
2021/01/14 12:38:29;;;;;;;2.47;2.00;;;2.30;78.60;;;;;;5016442;28;20037;-65
2021/01/14 12:40:54;;;;;;;5.00;1.67;;;2.30;79.40;;;;;;5018525;28;20030;-65
2021/01/14 12:43:20;;;;;;;1.92;1.75;;;2.30;78.60;;;;;;5020243;28;20046;-66
2021/01/14 12:45:46;;;;;;;4.13;1.98;;;2.30;78.60;;;;;;5016965;28;20034;-65
2021/01/14 12:48:11;;;;;;;1.73;1.60;;;2.20;78.60;;;;;;5051477;28;20029;-64
2021/01/14 12:50:41;;;;;;;1.90;1.40;;;2.30;78.80;;;;;;5017523;28;20108;-66
2021/01/14 12:53:07;;;;;;;2.53;1.77;;;2.30;78.60;;;;;;5019726;28;20033;-64
2021/01/14 12:55:33;;;;;;;1.83;1.70;;;2.20;78.50;;;;;;5019524;28;20095;-65
2021/01/14 12:57:59;;;;;;;3.20;2.13;;;2.20;78.60;;;;;;5018844;28;20021;-64
2021/01/14 13:00:24;;;;;;;3.03;2.20;;;2.20;78.60;;;;;;5019297;28;20040;-64
2021/01/14 13:02:50;;;;;;;2.63;1.85;;;2.20;78.60;;;;;;5018709;28;20042;-65
2021/01/14 13:05:18;;;;;;;2.28;1.55;;;2.20;78.70;;;;;;5018225;28;20506;-64
2021/01/14 13:07:44;;;;;;;4.07;3.03;;;2.30;78.90;;;;;;5019467;28;20048;-64
2021/01/14 13:10:10;;;;;;;2.45;2.25;;;2.30;78.80;;;;;;5019195;28;20413;-64
2021/01/14 13:12:36;;;;;;;4.90;2.72;;;2.30;78.70;;;;;;5017695;28;20365;-65